Time;durP1;ratioP1;P1;durP2;ratioP2;P2;SDS_P1;SDS_P2;PMS_P1;PMS_P2;Temp;Humidity;BMP_temperature;BMP_pressure;BME280_temperature;BME280_humidity;BME280_pressure;Samples;Min_cycle;Max_cycle;Signal;HPM_P1;HPM_P2
2021/08/07 00:00:20;;;;;;;2.78;2.38;;;;;;;;;;5077300;28;20129;-82
2021/08/07 00:02:46;;;;;;;3.33;2.78;;;;;;;;;;5076381;28;20103;-83
2021/08/07 00:05:12;;;;;;;6.50;2.75;;;;;;;;;;5077166;28;20035;-82
2021/08/07 00:07:38;;;;;;;5.25;3.25;;;;;;;;;;5077133;28;20048;-82
2021/08/07 00:10:07;;;;;;;7.15;2.92;;;;;;;;;;5076879;28;20020;-82
2021/08/07 00:12:33;;;;;;;6.75;2.92;;;;;;;;;;5075930;28;20028;-82
2021/08/07 00:14:59;;;;;;;4.60;2.63;;;;;;;;;;5077068;28;20494;-83
2021/08/07 00:17:25;;;;;;;4.47;2.85;;;;;;;;;;5076948;28;20402;-83
2021/08/07 00:19:51;;;;;;;6.80;3.58;;;;;;;;;;5076016;28;20407;-83
2021/08/07 00:22:17;;;;;;;5.20;2.80;;;;;;;;;;5076269;28;20429;-83
2021/08/07 00:24:43;;;;;;;4.43;3.72;;;;;;;;;;5075614;28;20052;-83
2021/08/07 00:27:09;;;;;;;3.53;3.03;;;;;;;;;;5077193;28;20103;-82
2021/08/07 00:29:36;;;;;;;5.22;3.65;;;;;;;;;;5076763;28;20017;-82
2021/08/07 00:32:02;;;;;;;3.60;3.20;;;;;;;;;;5075801;28;20064;-82
2021/08/07 00:34:28;;;;;;;6.45;3.38;;;;;;;;;;5075829;28;20025;-82
2021/08/07 00:36:54;;;;;;;3.63;3.33;;;;;;;;;;5076869;28;20314;-82
2021/08/07 00:39:20;;;;;;;4.32;3.40;;;;;;;;;;5075901;28;20299;-82
2021/08/07 00:41:46;;;;;;;7.00;3.20;;;;;;;;;;5076846;28;20310;-82
2021/08/07 00:44:12;;;;;;;4.10;3.10;;;;;;;;;;5075603;28;20326;-82
2021/08/07 00:46:39;;;;;;;7.53;3.28;;;;;;;;;;5076631;28;20032;-82
2021/08/07 00:49:05;;;;;;;7.63;3.70;;;;;;;;;;5076684;28;20408;-83
2021/08/07 00:51:31;;;;;;;5.60;3.63;;;;;;;;;;5076628;28;20095;-82
2021/08/07 00:53:58;;;;;;;11.77;7.65;;;;;;;;;;5076760;28;20082;-82
2021/08/07 00:56:24;;;;;;;15.25;9.98;;;;;;;;;;5077374;28;20021;-83
2021/08/07 00:58:50;;;;;;;10.90;7.95;;;;;;;;;;5080591;28;20052;-83
2021/08/07 01:01:16;;;;;;;9.52;6.13;;;;;;;;;;5079340;28;20029;-82
2021/08/07 01:03:45;;;;;;;10.05;5.53;;;;;;;;;;5080563;28;20051;-83
2021/08/07 01:06:30;;;;;;;8.65;6.03;;;;;;;;;;5080392;28;20058;-83
2021/08/07 01:09:15;;;;;;;13.43;6.45;;;;;;;;;;5080297;28;20031;-82
2021/08/07 01:11:46;;;;;;;19.73;10.73;;;;;;;;;;5079303;28;20062;-83
2021/08/07 01:14:12;;;;;;;16.52;9.25;;;;;;;;;;5080314;28;20031;-83
2021/08/07 01:16:39;;;;;;;14.48;8.68;;;;;;;;;;5080100;28;20016;-83
2021/08/07 01:19:10;;;;;;;15.75;8.60;;;;;;;;;;5079001;28;20318;-83
2021/08/07 01:21:38;;;;;;;13.65;9.02;;;;;;;;;;5080169;28;20074;-83
2021/08/07 01:24:24;;;;;;;10.38;7.35;;;;;;;;;;5078556;28;20442;-82
2021/08/07 01:26:50;;;;;;;8.02;5.28;;;;;;;;;;5079770;28;20025;-82
2021/08/07 01:29:17;;;;;;;7.43;5.50;;;;;;;;;;5079839;28;20029;-82
2021/08/07 01:31:46;;;;;;;6.93;5.57;;;;;;;;;;5078748;28;20520;-82
2021/08/07 01:34:13;;;;;;;8.60;5.15;;;;;;;;;;5079804;28;20029;-82
2021/08/07 01:36:39;;;;;;;7.72;5.10;;;;;;;;;;5079912;28;20039;-83
2021/08/07 01:39:05;;;;;;;7.63;5.10;;;;;;;;;;5079823;28;20425;-83
2021/08/07 01:41:31;;;;;;;6.20;4.97;;;;;;;;;;5079820;28;20399;-84
2021/08/07 01:43:57;;;;;;;6.68;5.05;;;;;;;;;;5078645;28;20346;-84
2021/08/07 01:46:27;;;;;;;6.65;5.20;;;;;;;;;;5078661;28;20021;-84
2021/08/07 01:48:56;;;;;;;11.77;6.28;;;;;;;;;;5079912;28;20032;-83
2021/08/07 01:51:28;;;;;;;8.48;5.18;;;;;;;;;;5078823;28;20040;-83
2021/08/07 01:53:54;;;;;;;7.07;4.45;;;;;;;;;;5078581;28;20047;-84
2021/08/07 01:56:25;;;;;;;7.13;4.22;;;;;;;;;;5079699;28;20021;-84
2021/08/07 01:58:57;;;;;;;6.57;5.13;;;;;;;;;;5079869;28;20020;-84
2021/08/07 02:01:28;;;;;;;7.90;4.40;;;;;;;;;;5079309;28;20028;-84
2021/08/07 02:03:54;;;;;;;5.78;4.85;;;;;;;;;;5079573;28;20029;-83
2021/08/07 02:06:21;;;;;;;4.88;4.47;;;;;;;;;;5078611;28;20028;-83
2021/08/07 02:08:47;;;;;;;7.63;4.28;;;;;;;;;;5078735;28;20032;-82
2021/08/07 02:11:13;;;;;;;5.53;4.93;;;;;;;;;;5078481;28;20047;-82
2021/08/07 02:13:40;;;;;;;7.88;4.30;;;;;;;;;;5079298;28;20059;-82
2021/08/07 02:16:07;;;;;;;6.72;4.57;;;;;;;;;;5078941;28;20466;-82
2021/08/07 02:18:33;;;;;;;9.60;5.20;;;;;;;;;;5079123;28;20104;-83
2021/08/07 02:21:00;;;;;;;6.50;4.55;;;;;;;;;;5079058;28;20066;-85
2021/08/07 02:23:26;;;;;;;8.30;5.25;;;;;;;;;;5079319;28;20029;-82
2021/08/07 02:25:57;;;;;;;7.00;4.82;;;;;;;;;;5078719;28;20123;-82
2021/08/07 02:28:24;;;;;;;8.88;5.10;;;;;;;;;;5077521;28;20086;-80
2021/08/07 02:30:51;;;;;;;6.32;5.07;;;;;;;;;;5078795;28;20047;-79
2021/08/07 02:33:19;;;;;;;6.97;5.60;;;;;;;;;;5078754;28;20092;-79
2021/08/07 02:35:45;;;;;;;8.38;5.07;;;;;;;;;;5078817;28;20103;-79
2021/08/07 02:38:12;;;;;;;7.97;5.25;;;;;;;;;;5077572;28;20403;-80
2021/08/07 02:40:38;;;;;;;5.50;4.95;;;;;;;;;;5078444;28;20020;-79
2021/08/07 02:43:05;;;;;;;5.90;4.95;;;;;;;;;;5078192;28;20021;-79
2021/08/07 02:45:31;;;;;;;7.95;5.25;;;;;;;;;;5078394;28;20078;-80
2021/08/07 02:47:58;;;;;;;16.10;9.27;;;;;;;;;;5078626;28;20020;-80
2021/08/07 02:50:24;;;;;;;14.05;9.15;;;;;;;;;;5078434;28;20047;-79
2021/08/07 02:52:50;;;;;;;21.48;13.20;;;;;;;;;;5078513;28;20020;-80
2021/08/07 02:55:16;;;;;;;11.45;8.35;;;;;;;;;;5077266;28;20036;-80
2021/08/07 02:57:42;;;;;;;9.63;6.25;;;;;;;;;;5078204;28;20028;-80
2021/08/07 03:00:08;;;;;;;7.22;5.50;;;;;;;;;;5077051;28;20025;-80
2021/08/07 03:02:34;;;;;;;8.35;5.50;;;;;;;;;;5078159;28;20032;-79
2021/08/07 03:05:00;;;;;;;7.32;4.95;;;;;;;;;;5078090;28;20028;-80
2021/08/07 03:07:26;;;;;;;6.95;5.68;;;;;;;;;;5078140;28;20099;-80
2021/08/07 03:09:52;;;;;;;10.70;6.28;;;;;;;;;;5077972;28;20020;-80
2021/08/07 03:12:19;;;;;;;10.50;7.00;;;;;;;;;;5076978;28;20024;-80
2021/08/07 03:14:45;;;;;;;15.63;9.60;;;;;;;;;;5078013;28;20104;-79
2021/08/07 03:17:11;;;;;;;17.88;8.65;;;;;;;;;;5076672;28;20070;-80
2021/08/07 03:19:37;;;;;;;12.73;7.40;;;;;;;;;;5076810;28;20025;-80
2021/08/07 03:22:03;;;;;;;9.93;7.32;;;;;;;;;;5077774;28;20035;-79
2021/08/07 03:24:29;;;;;;;12.05;7.53;;;;;;;;;;5077564;28;20151;-80
2021/08/07 03:26:55;;;;;;;11.18;6.95;;;;;;;;;;5077488;28;20025;-80
2021/08/07 03:29:21;;;;;;;15.77;7.22;;;;;;;;;;5076515;28;20115;-80
2021/08/07 03:31:47;;;;;;;11.07;6.95;;;;;;;;;;5077641;28;20030;-81
2021/08/07 03:34:13;;;;;;;12.82;7.35;;;;;;;;;;5077780;28;20035;-80
2021/08/07 03:36:40;;;;;;;15.80;7.45;;;;;;;;;;5077499;28;20024;-79
2021/08/07 03:39:06;;;;;;;11.85;5.97;;;;;;;;;;5077566;28;20025;-80
2021/08/07 03:41:32;;;;;;;9.52;6.07;;;;;;;;;;5077113;28;20035;-79
2021/08/07 03:43:58;;;;;;;21.67;6.13;;;;;;;;;;5077405;28;20028;-79
2021/08/07 03:46:24;;;;;;;12.27;5.95;;;;;;;;;;5077406;28;20029;-79
2021/08/07 03:48:50;;;;;;;13.73;5.85;;;;;;;;;;5077491;28;20122;-79
2021/08/07 03:51:16;;;;;;;13.02;6.07;;;;;;;;;;5077345;28;20025;-80
2021/08/07 03:53:42;;;;;;;17.48;6.95;;;;;;;;;;5077392;28;20033;-80
2021/08/07 03:56:08;;;;;;;13.85;6.40;;;;;;;;;;5077032;28;20414;-80
2021/08/07 03:58:34;;;;;;;11.52;6.05;;;;;;;;;;5077149;28;20028;-79
2021/08/07 04:01:00;;;;;;;11.63;6.43;;;;;;;;;;5076073;28;20443;-80
2021/08/07 04:03:26;;;;;;;13.77;6.15;;;;;;;;;;5077026;28;20411;-80
2021/08/07 04:05:52;;;;;;;15.15;5.93;;;;;;;;;;5076052;28;20025;-79
2021/08/07 04:08:19;;;;;;;13.40;5.45;;;;;;;;;;5077143;28;20028;-79
2021/08/07 04:10:45;;;;;;;18.08;6.60;;;;;;;;;;5077092;28;20020;-79
2021/08/07 04:13:11;;;;;;;12.07;6.38;;;;;;;;;;5076702;28;20049;-80
2021/08/07 04:15:38;;;;;;;12.50;6.10;;;;;;;;;;5077087;28;20043;-79
2021/08/07 04:18:04;;;;;;;12.15;6.20;;;;;;;;;;5077054;28;20020;-80
2021/08/07 04:20:30;;;;;;;12.65;6.32;;;;;;;;;;5077089;28;20074;-80
2021/08/07 04:22:56;;;;;;;14.00;6.10;;;;;;;;;;5076759;28;20108;-80
2021/08/07 04:25:22;;;;;;;14.60;8.90;;;;;;;;;;5076673;28;20120;-80
2021/08/07 04:27:48;;;;;;;13.60;7.90;;;;;;;;;;5076597;28;20025;-80
2021/08/07 04:30:14;;;;;;;9.48;6.50;;;;;;;;;;5077368;28;20025;-80
2021/08/07 04:32:40;;;;;;;10.48;6.07;;;;;;;;;;5080900;28;20012;-80
2021/08/07 04:35:07;;;;;;;12.23;6.78;;;;;;;;;;5081002;28;20032;-79
2021/08/07 04:37:44;;;;;;;8.93;6.47;;;;;;;;;;5081039;28;20069;-79
2021/08/07 04:40:10;;;;;;;10.25;6.75;;;;;;;;;;5080978;28;20033;-79
2021/08/07 04:42:36;;;;;;;8.68;6.72;;;;;;;;;;5080705;28;20044;-79
2021/08/07 04:45:02;;;;;;;8.45;5.97;;;;;;;;;;5079984;28;20055;-80
2021/08/07 04:47:28;;;;;;;9.18;5.80;;;;;;;;;;5080674;28;20104;-80
2021/08/07 04:49:54;;;;;;;7.82;6.82;;;;;;;;;;5080887;28;20047;-80
2021/08/07 04:52:20;;;;;;;8.52;5.93;;;;;;;;;;5080600;28;20021;-80
2021/08/07 04:54:46;;;;;;;9.57;6.78;;;;;;;;;;5079498;28;20426;-80
2021/08/07 04:57:12;;;;;;;7.82;5.90;;;;;;;;;;5080626;28;20421;-79
2021/08/07 04:59:38;;;;;;;10.07;6.47;;;;;;;;;;5075626;28;20017;-79
2021/08/07 05:02:04;;;;;;;12.75;7.65;;;;;;;;;;5073794;28;20386;-80
2021/08/07 05:04:30;;;;;;;10.35;6.97;;;;;;;;;;5080271;28;20296;-80
2021/08/07 05:06:56;;;;;;;9.98;6.05;;;;;;;;;;5080501;28;20043;-80
2021/08/07 05:09:22;;;;;;;12.02;9.43;;;;;;;;;;5080467;28;20322;-79
2021/08/07 05:11:48;;;;;;;6.82;6.13;;;;;;;;;;5080112;28;20021;-79
2021/08/07 05:14:14;;;;;;;10.60;6.63;;;;;;;;;;5080168;28;20021;-80
2021/08/07 05:16:40;;;;;;;6.93;5.53;;;;;;;;;;5080101;28;20051;-80
2021/08/07 05:19:06;;;;;;;11.77;6.80;;;;;;;;;;5079936;28;20410;-80
2021/08/07 05:21:32;;;;;;;6.93;5.80;;;;;;;;;;5074407;28;20040;-82
2021/08/07 05:23:59;;;;;;;9.32;5.72;;;;;;;;;;5067547;28;20037;-81
2021/08/07 05:26:25;;;;;;;7.90;6.00;;;;;;;;;;5079823;28;20159;-82
2021/08/07 05:28:51;;;;;;;6.65;5.85;;;;;;;;;;5065630;28;20028;-80
2021/08/07 05:31:17;;;;;;;10.63;6.78;;;;;;;;;;5072624;28;20078;-83
2021/08/07 05:33:43;;;;;;;5.45;4.68;;;;;;;;;;5079206;28;20043;-84
2021/08/07 05:36:09;;;;;;;4.88;4.35;;;;;;;;;;5079895;28;20025;-83
2021/08/07 05:38:35;;;;;;;6.65;4.97;;;;;;;;;;5079956;28;20024;-84
2021/08/07 05:41:01;;;;;;;6.18;5.22;;;;;;;;;;5079903;28;20453;-84
2021/08/07 05:43:28;;;;;;;4.60;4.20;;;;;;;;;;5078979;28;20090;-83
2021/08/07 05:45:54;;;;;;;6.97;4.40;;;;;;;;;;5078635;28;20369;-84
2021/08/07 05:48:21;;;;;;;8.02;4.80;;;;;;;;;;5079849;28;20036;-84
2021/08/07 05:50:47;;;;;;;15.77;6.68;;;;;;;;;;5079856;28;20029;-83
2021/08/07 05:53:13;;;;;;;8.57;5.30;;;;;;;;;;5079603;28;20047;-84
2021/08/07 05:55:39;;;;;;;10.75;5.28;;;;;;;;;;5079872;28;20484;-84
2021/08/07 05:58:06;;;;;;;8.13;5.18;;;;;;;;;;5079582;28;20025;-84
2021/08/07 06:00:32;;;;;;;5.97;4.97;;;;;;;;;;5079694;28;20025;-84
2021/08/07 06:02:58;;;;;;;5.45;4.95;;;;;;;;;;5078549;28;20452;-84
2021/08/07 06:05:24;;;;;;;13.85;9.10;;;;;;;;;;5079478;28;20414;-84
2021/08/07 06:07:51;;;;;;;5.57;4.47;;;;;;;;;;5079468;28;20084;-84
2021/08/07 06:10:17;;;;;;;4.47;3.88;;;;;;;;;;5078629;28;20044;-84
2021/08/07 06:12:43;;;;;;;11.30;6.22;;;;;;;;;;5078345;28;20124;-84
2021/08/07 06:15:09;;;;;;;9.77;7.80;;;;;;;;;;5079476;28;20296;-83
2021/08/07 06:17:38;;;;;;;9.20;6.70;;;;;;;;;;5078279;28;20032;-84
2021/08/07 06:20:05;;;;;;;9.93;7.03;;;;;;;;;;5078256;28;20411;-84
2021/08/07 06:22:31;;;;;;;11.20;8.98;;;;;;;;;;5078497;28;20023;-84
2021/08/07 06:25:00;;;;;;;12.00;7.78;;;;;;;;;;5078775;28;20052;-84
2021/08/07 06:27:26;;;;;;;23.33;16.33;;;;;;;;;;5079168;28;20031;-84
2021/08/07 06:29:52;;;;;;;9.13;6.82;;;;;;;;;;5078977;28;20021;-84
2021/08/07 06:32:18;;;;;;;12.73;9.48;;;;;;;;;;5078860;28;20033;-84
2021/08/07 06:34:44;;;;;;;5.38;4.70;;;;;;;;;;5078170;28;20064;-85
2021/08/07 06:37:10;;;;;;;9.60;6.15;;;;;;;;;;5079182;28;20046;-84
2021/08/07 06:39:36;;;;;;;6.57;3.72;;;;;;;;;;5078908;28;20397;-83
2021/08/07 06:42:03;;;;;;;22.98;15.75;;;;;;;;;;5078755;28;20103;-84
2021/08/07 06:44:29;;;;;;;6.82;5.45;;;;;;;;;;5078609;28;20025;-84
2021/08/07 06:46:55;;;;;;;7.15;5.93;;;;;;;;;;5078733;28;20021;-84
2021/08/07 06:49:21;;;;;;;5.75;4.53;;;;;;;;;;5077921;28;20035;-85
2021/08/07 06:51:47;;;;;;;6.53;4.15;;;;;;;;;;5078389;28;20024;-85
2021/08/07 06:54:13;;;;;;;4.75;2.50;;;;;;;;;;5076407;28;20029;-85
2021/08/07 06:56:39;;;;;;;4.95;3.65;;;;;;;;;;5077702;28;20092;-84
2021/08/07 06:59:05;;;;;;;6.25;4.90;;;;;;;;;;5078366;28;20031;-83
2021/08/07 07:01:31;;;;;;;10.77;7.15;;;;;;;;;;5078235;28;20029;-83
2021/08/07 07:03:57;;;;;;;8.98;6.45;;;;;;;;;;5078159;28;20420;-83
2021/08/07 07:06:23;;;;;;;5.55;4.00;;;;;;;;;;5078371;28;20226;-85
2021/08/07 07:08:50;;;;;;;12.98;9.05;;;;;;;;;;5078132;28;20021;-85
2021/08/07 07:11:16;;;;;;;23.83;17.05;;;;;;;;;;5077537;28;20033;-85
2021/08/07 07:13:43;;;;;;;13.15;10.20;;;;;;;;;;5077564;28;20032;-85
2021/08/07 07:16:09;;;;;;;15.98;12.25;;;;;;;;;;5078097;28;20036;-84
2021/08/07 07:18:35;;;;;;;16.90;9.90;;;;;;;;;;5076823;28;20442;-85
2021/08/07 07:21:01;;;;;;;7.20;5.30;;;;;;;;;;5078108;28;20035;-85
2021/08/07 07:23:27;;;;;;;7.18;4.18;;;;;;;;;;5076926;28;20063;-84
2021/08/07 07:25:54;;;;;;;18.15;12.18;;;;;;;;;;5077978;28;20310;-84
2021/08/07 07:28:20;;;;;;;17.88;9.63;;;;;;;;;;5077881;28;20025;-84
2021/08/07 07:30:46;;;;;;;38.58;21.45;;;;;;;;;;5078042;28;20036;-84
2021/08/07 07:33:14;;;;;;;285.42;179.90;;;;;;;;;;5078089;28;20055;-84
2021/08/07 07:35:40;;;;;;;224.05;142.50;;;;;;;;;;5077946;28;20104;-85
2021/08/07 07:38:06;;;;;;;87.00;55.78;;;;;;;;;;5076592;28;20032;-85
2021/08/07 07:40:32;;;;;;;151.20;95.13;;;;;;;;;;5077835;28;20032;-85
2021/08/07 07:42:58;;;;;;;73.32;43.58;;;;;;;;;;5077618;28;20123;-84
2021/08/07 07:45:25;;;;;;;84.47;55.53;;;;;;;;;;5077121;28;20044;-85
2021/08/07 07:47:51;;;;;;;80.72;51.33;;;;;;;;;;5077787;28;20062;-84
2021/08/07 07:50:17;;;;;;;45.58;31.65;;;;;;;;;;5077557;28;20345;-84
2021/08/07 07:52:44;;;;;;;59.28;38.83;;;;;;;;;;5076590;28;20020;-84
2021/08/07 07:55:11;;;;;;;52.28;37.13;;;;;;;;;;5077468;28;20116;-84
2021/08/07 07:57:37;;;;;;;46.83;28.67;;;;;;;;;;5076387;28;20041;-84
2021/08/07 08:00:06;;;;;;;44.30;31.42;;;;;;;;;;5076727;28;20029;-84
2021/08/07 08:02:32;;;;;;;27.80;20.13;;;;;;;;;;5077345;28;20032;-84
2021/08/07 08:04:58;;;;;;;17.40;12.60;;;;;;;;;;5075928;28;20031;-84
2021/08/07 08:07:25;;;;;;;19.90;8.35;;;;;;;;;;5076556;28;20039;-84
2021/08/07 08:09:51;;;;;;;12.55;9.77;;;;;;;;;;5077310;28;20062;-84
2021/08/07 08:12:17;;;;;;;11.68;6.55;;;;;;;;;;5076957;28;20028;-83
2021/08/07 08:14:43;;;;;;;10.45;6.90;;;;;;;;;;5077191;28;20028;-84
2021/08/07 08:17:09;;;;;;;5.65;3.50;;;;;;;;;;5076537;28;20024;-83
2021/08/07 08:19:37;;;;;;;8.98;5.18;;;;;;;;;;5075855;28;20390;-84
2021/08/07 08:22:03;;;;;;;11.88;5.38;;;;;;;;;;5077093;28;20052;-84
2021/08/07 08:24:29;;;;;;;9.43;5.07;;;;;;;;;;5076754;28;20048;-84
2021/08/07 08:26:57;;;;;;;6.22;4.05;;;;;;;;;;5077065;28;20044;-84
2021/08/07 08:29:23;;;;;;;4.50;3.65;;;;;;;;;;5076306;28;20029;-84
2021/08/07 08:31:49;;;;;;;10.57;3.72;;;;;;;;;;5077298;28;20032;-84
2021/08/07 08:34:15;;;;;;;3.85;2.55;;;;;;;;;;5077104;28;20024;-84
2021/08/07 08:36:41;;;;;;;4.90;3.00;;;;;;;;;;5075805;28;20020;-83
2021/08/07 08:39:07;;;;;;;5.95;2.70;;;;;;;;;;5076824;28;20119;-87
2021/08/07 08:41:34;;;;;;;4.45;2.78;;;;;;;;;;5077073;28;20021;-83
2021/08/07 08:44:00;;;;;;;4.68;2.17;;;;;;;;;;5076828;28;20342;-85
2021/08/07 08:46:26;;;;;;;3.67;2.20;;;;;;;;;;5076734;28;20027;-83
2021/08/07 08:48:53;;;;;;;3.42;2.17;;;;;;;;;;5076260;28;20419;-84
2021/08/07 08:51:25;;;;;;;2.80;2.03;;;;;;;;;;5077031;28;20017;-83
2021/08/07 08:53:51;;;;;;;7.13;2.40;;;;;;;;;;5076966;28;20047;-82
2021/08/07 08:56:17;;;;;;;3.90;1.63;;;;;;;;;;5076570;28;20056;-83
2021/08/07 08:58:45;;;;;;;2.63;1.77;;;;;;;;;;5076604;28;20030;-83
2021/08/07 09:01:11;;;;;;;1.55;1.35;;;;;;;;;;5076712;28;20107;-84
2021/08/07 09:03:37;;;;;;;3.20;2.03;;;;;;;;;;5076599;28;20020;-83
2021/08/07 09:06:03;;;;;;;4.70;2.00;;;;;;;;;;5075643;28;20060;-84
2021/08/07 09:08:29;;;;;;;12.20;8.98;;;;;;;;;;5075751;28;20043;-82
2021/08/07 09:11:14;;;;;;;11.02;7.18;;;;;;;;;;5075449;28;20104;-82
2021/08/07 09:13:40;;;;;;;7.57;5.00;;;;;;;;;;5076313;28;20025;-82
2021/08/07 09:16:10;;;;;;;6.00;3.92;;;;;;;;;;5075540;28;20482;-83
2021/08/07 09:18:36;;;;;;;4.35;3.13;;;;;;;;;;5078438;28;20468;-82
2021/08/07 09:21:13;;;;;;;3.65;2.90;;;;;;;;;;5078945;28;20410;-82
2021/08/07 09:23:40;;;;;;;10.40;2.70;;;;;;;;;;5080029;28;20414;-83
2021/08/07 09:26:13;;;;;;;6.75;2.35;;;;;;;;;;5079774;28;20090;-83
2021/08/07 09:28:46;;;;;;;8.38;1.80;;;;;;;;;;5080063;28;20033;-82
2021/08/07 09:31:12;;;;;;;5.57;2.42;;;;;;;;;;5079243;28;20052;-83
2021/08/07 09:33:39;;;;;;;4.40;3.10;;;;;;;;;;5079817;28;20434;-83
2021/08/07 09:36:05;;;;;;;9.80;3.00;;;;;;;;;;5078882;28;20291;-82
2021/08/07 09:38:31;;;;;;;7.13;3.15;;;;;;;;;;5079095;28;20366;-83
2021/08/07 09:41:04;;;;;;;3.10;1.45;;;;;;;;;;5080091;28;20067;-83
2021/08/07 09:43:35;;;;;;;9.70;2.72;;;;;;;;;;5080056;28;20333;-83
2021/08/07 09:46:01;;;;;;;8.38;4.30;;;;;;;;;;5078622;28;20024;-83
2021/08/07 09:48:32;;;;;;;3.17;2.30;;;;;;;;;;5079922;28;20029;-84
2021/08/07 09:50:58;;;;;;;3.35;2.03;;;;;;;;;;5079619;28;20476;-83
2021/08/07 09:53:27;;;;;;;2.00;1.50;;;;;;;;;;5079558;28;20025;-83
2021/08/07 09:56:01;;;;;;;5.07;2.00;;;;;;;;;;5079594;28;20337;-83
2021/08/07 09:58:27;;;;;;;8.35;4.50;;;;;;;;;;5078793;28;20035;-83
2021/08/07 10:00:53;;;;;;;5.45;2.90;;;;;;;;;;5079341;28;20062;-83
2021/08/07 10:03:20;;;;;;;7.35;2.50;;;;;;;;;;5079612;28;20032;-84
2021/08/07 10:05:47;;;;;;;9.60;3.30;;;;;;;;;;5078705;28;20058;-83
2021/08/07 10:08:14;;;;;;;24.90;4.82;;;;;;;;;;5079259;28;20040;-83
2021/08/07 10:10:41;;;;;;;8.93;4.47;;;;;;;;;;5079385;28;20025;-83
2021/08/07 10:13:08;;;;;;;9.80;6.70;;;;;;;;;;5078267;28;20021;-83
2021/08/07 10:15:34;;;;;;;15.60;13.75;;;;;;;;;;5079351;28;20028;-83
2021/08/07 10:18:00;;;;;;;9.32;7.72;;;;;;;;;;5079068;28;20031;-83
2021/08/07 10:20:27;;;;;;;5.80;5.20;;;;;;;;;;5079070;28;20032;-83
2021/08/07 10:22:54;;;;;;;59.65;51.67;;;;;;;;;;5078949;28;20330;-83
2021/08/07 10:25:22;;;;;;;3.40;2.10;;;;;;;;;;5078814;28;20365;-83
2021/08/07 10:27:50;;;;;;;5.70;1.52;;;;;;;;;;5079012;28;20433;-83
2021/08/07 10:30:16;;;;;;;2.58;1.60;;;;;;;;;;5078764;28;20312;-83
2021/08/07 10:32:43;;;;;;;2.28;1.60;;;;;;;;;;5078824;28;20099;-83
2021/08/07 10:35:10;;;;;;;1.33;1.23;;;;;;;;;;5078900;28;20031;-81
2021/08/07 10:37:36;;;;;;;4.97;2.03;;;;;;;;;;5079046;28;20103;-81
2021/08/07 10:40:03;;;;;;;3.63;1.38;;;;;;;;;;5078976;28;20067;-81
2021/08/07 10:42:32;;;;;;;2.20;1.42;;;;;;;;;;5078833;28;20067;-81
2021/08/07 10:44:58;;;;;;;1.58;1.30;;;;;;;;;;5078663;28;20060;-80
2021/08/07 10:47:44;;;;;;;2.83;1.30;;;;;;;;;;5078861;28;20463;-81
2021/08/07 10:50:25;;;;;;;1.73;1.15;;;;;;;;;;5078510;28;20029;-80
2021/08/07 10:52:55;;;;;;;12.15;1.73;;;;;;;;;;5078641;28;20021;-81
2021/08/07 10:55:40;;;;;;;8.03;1.60;;;;;;;;;;5078497;28;20036;-81
2021/08/07 10:58:26;;;;;;;2.08;1.30;;;;;;;;;;5078369;28;20036;-81
2021/08/07 11:00:52;;;;;;;3.35;1.67;;;;;;;;;;5078119;28;20020;-81
2021/08/07 11:03:18;;;;;;;4.25;1.27;;;;;;;;;;5077494;28;20059;-81
2021/08/07 11:05:50;;;;;;;5.18;1.40;;;;;;;;;;5078319;28;20028;-81
2021/08/07 11:08:17;;;;;;;5.07;1.48;;;;;;;;;;5078327;28;20091;-81
2021/08/07 11:10:43;;;;;;;3.78;1.40;;;;;;;;;;5078268;28;20095;-80
2021/08/07 11:13:26;;;;;;;1.75;1.20;;;;;;;;;;5078221;28;20044;-81
2021/08/07 11:16:11;;;;;;;3.53;1.10;;;;;;;;;;5077678;28;20059;-81
2021/08/07 11:18:37;;;;;;;5.13;1.50;;;;;;;;;;5078151;28;20035;-81
2021/08/07 11:21:03;;;;;;;6.78;1.92;;;;;;;;;;5078023;28;20020;-81
2021/08/07 11:23:36;;;;;;;3.97;1.30;;;;;;;;;;5076654;28;20086;-81
2021/08/07 11:26:04;;;;;;;4.65;1.20;;;;;;;;;;5078030;28;20318;-86
2021/08/07 11:28:30;;;;;;;5.95;1.55;;;;;;;;;;5077945;28;20017;-83
2021/08/07 11:31:16;;;;;;;2.17;1.27;;;;;;;;;;5077994;28;20321;-83
2021/08/07 11:33:42;;;;;;;3.80;1.27;;;;;;;;;;5078046;28;20016;-83
2021/08/07 11:36:10;;;;;;;6.13;1.48;;;;;;;;;;5076896;28;20101;-83
2021/08/07 11:38:56;;;;;;;3.05;1.17;;;;;;;;;;5077721;28;20036;-83
2021/08/07 11:41:35;;;;;;;1.55;1.10;;;;;;;;;;5078097;28;20028;-85
2021/08/07 11:44:02;;;;;;;2.15;1.20;;;;;;;;;;5077776;28;20025;-86
2021/08/07 11:46:32;;;;;;;2.05;1.15;;;;;;;;;;5076852;28;20029;-87
2021/08/07 11:48:59;;;;;;;3.17;1.50;;;;;;;;;;5077934;28;20096;-87
2021/08/07 11:51:26;;;;;;;2.85;1.20;;;;;;;;;;5078071;28;20032;-87
2021/08/07 11:53:53;;;;;;;1.70;1.40;;;;;;;;;;5078080;28;20432;-86
2021/08/07 11:56:22;;;;;;;2.28;1.40;;;;;;;;;;5077969;28;20036;-87
2021/08/07 11:58:48;;;;;;;5.80;1.80;;;;;;;;;;5077639;28;20040;-87
2021/08/07 12:01:15;;;;;;;2.65;1.50;;;;;;;;;;5077758;28;20052;-86
2021/08/07 12:03:47;;;;;;;5.75;1.40;;;;;;;;;;5077770;28;20403;-86
2021/08/07 12:06:15;;;;;;;3.72;1.13;;;;;;;;;;5077610;28;20070;-86
2021/08/07 12:08:42;;;;;;;1.80;1.27;;;;;;;;;;5077792;28;20021;-86
2021/08/07 12:11:11;;;;;;;3.88;1.30;;;;;;;;;;5077935;28;20023;-87
2021/08/07 12:13:39;;;;;;;2.78;2.05;;;;;;;;;;5077766;28;20024;-86
2021/08/07 12:16:05;;;;;;;2.03;1.23;;;;;;;;;;5077211;28;20024;-87
2021/08/07 12:18:38;;;;;;;2.10;1.10;;;;;;;;;;5076607;28;20025;-87
2021/08/07 12:21:04;;;;;;;3.10;1.30;;;;;;;;;;5076838;28;20024;-87
2021/08/07 12:23:44;;;;;;;3.15;1.40;;;;;;;;;;5076670;28;20132;-87
2021/08/07 12:26:10;;;;;;;1.83;1.33;;;;;;;;;;5076387;28;20138;-87
2021/08/07 12:28:37;;;;;;;5.32;2.65;;;;;;;;;;5077458;28;20027;-87
2021/08/07 12:31:03;;;;;;;5.18;1.73;;;;;;;;;;5076859;28;20115;-87
2021/08/07 12:33:29;;;;;;;3.28;1.45;;;;;;;;;;5077446;28;20024;-87
2021/08/07 12:35:55;;;;;;;4.22;1.40;;;;;;;;;;5077420;28;20074;-87
2021/08/07 12:38:26;;;;;;;4.75;1.70;;;;;;;;;;5077505;28;20029;-87
2021/08/07 12:40:58;;;;;;;3.58;1.50;;;;;;;;;;5077363;28;20028;-88
2021/08/07 12:43:31;;;;;;;32.05;3.50;;;;;;;;;;5077386;28;20028;-87
2021/08/07 12:46:02;;;;;;;8.18;2.05;;;;;;;;;;5076208;28;20409;-87
2021/08/07 12:48:47;;;;;;;9.45;2.05;;;;;;;;;;5077284;28;20017;-87
2021/08/07 12:51:20;;;;;;;2.20;1.25;;;;;;;;;;5076831;28;20029;-87
2021/08/07 12:53:47;;;;;;;3.58;1.27;;;;;;;;;;5079839;28;20024;-84
2021/08/07 12:56:13;;;;;;;6.72;1.85;;;;;;;;;;5079590;28;20064;-84
2021/08/07 12:58:56;;;;;;;6.95;1.55;;;;;;;;;;5080533;28;20024;-84
2021/08/07 13:01:22;;;;;;;11.00;2.20;;;;;;;;;;5079580;28;20032;-84
2021/08/07 13:04:08;;;;;;;4.88;1.60;;;;;;;;;;5080541;28;20063;-84
2021/08/07 13:06:35;;;;;;;2.17;1.70;;;;;;;;;;5080479;28;20119;-84
2021/08/07 13:09:20;;;;;;;2.90;1.58;;;;;;;;;;5079466;28;20391;-83
2021/08/07 13:12:05;;;;;;;1.63;1.40;;;;;;;;;;5079739;28;20475;-84
2021/08/07 13:14:31;;;;;;;2.63;1.60;;;;;;;;;;5080429;28;20036;-83
2021/08/07 13:16:57;;;;;;;2.92;1.70;;;;;;;;;;5079308;28;20056;-83
2021/08/07 13:19:28;;;;;;;2.55;1.63;;;;;;;;;;5080281;28;20025;-83
2021/08/07 13:22:14;;;;;;;2.53;1.48;;;;;;;;;;5080470;28;20029;-83
2021/08/07 13:24:50;;;;;;;2.03;1.45;;;;;;;;;;5079927;28;20089;-83
2021/08/07 13:27:16;;;;;;;5.00;1.50;;;;;;;;;;5080239;28;20028;-83
2021/08/07 13:29:43;;;;;;;4.43;1.98;;;;;;;;;;5080205;28;20046;-83
2021/08/07 13:32:18;;;;;;;3.25;1.60;;;;;;;;;;5079902;28;20028;-83
2021/08/07 13:34:44;;;;;;;3.42;1.90;;;;;;;;;;5079993;28;20021;-83
2021/08/07 13:37:10;;;;;;;2.97;1.60;;;;;;;;;;5080155;28;20054;-83
2021/08/07 13:39:40;;;;;;;2.60;1.50;;;;;;;;;;5080041;28;20020;-84
2021/08/07 13:42:06;;;;;;;4.78;1.77;;;;;;;;;;5078906;28;20032;-84
2021/08/07 13:44:34;;;;;;;2.42;1.88;;;;;;;;;;5079725;28;20108;-82
2021/08/07 13:47:00;;;;;;;3.20;1.90;;;;;;;;;;5079628;28;20016;-81
2021/08/07 13:49:26;;;;;;;5.38;1.73;;;;;;;;;;5079745;28;20086;-81
2021/08/07 13:51:53;;;;;;;12.25;2.80;;;;;;;;;;5079722;28;20054;-81
2021/08/07 13:54:19;;;;;;;2.75;1.63;;;;;;;;;;5079831;28;20031;-81
2021/08/07 13:56:45;;;;;;;2.88;2.25;;;;;;;;;;5078639;28;20043;-81
2021/08/07 13:59:11;;;;;;;3.38;1.60;;;;;;;;;;5079670;28;20062;-81
2021/08/07 14:01:37;;;;;;;6.35;2.15;;;;;;;;;;5079348;28;20024;-80
2021/08/07 14:04:03;;;;;;;4.03;1.73;;;;;;;;;;5078779;28;20406;-81
2021/08/07 14:06:29;;;;;;;4.90;1.65;;;;;;;;;;5078388;28;20039;-80
2021/08/07 14:08:55;;;;;;;6.32;1.42;;;;;;;;;;5079420;28;20028;-80
2021/08/07 14:11:21;;;;;;;2.60;1.80;;;;;;;;;;5079341;28;20100;-81
2021/08/07 14:13:47;;;;;;;3.53;1.88;;;;;;;;;;5078926;28;20027;-81
2021/08/07 14:16:14;;;;;;;2.72;1.67;;;;;;;;;;5079318;28;20424;-79
2021/08/07 14:18:40;;;;;;;3.58;2.00;;;;;;;;;;5079255;28;20024;-80
2021/08/07 14:21:06;;;;;;;5.32;2.05;;;;;;;;;;5079063;28;20414;-80
2021/08/07 14:23:32;;;;;;;3.22;2.03;;;;;;;;;;5079009;28;20059;-80
2021/08/07 14:25:59;;;;;;;2.15;1.58;;;;;;;;;;5078816;28;20032;-80
2021/08/07 14:28:25;;;;;;;2.65;1.83;;;;;;;;;;5078764;28;20115;-80
2021/08/07 14:30:51;;;;;;;5.38;2.00;;;;;;;;;;5079132;28;20020;-80
2021/08/07 14:33:17;;;;;;;7.45;1.95;;;;;;;;;;5078818;28;20031;-80
2021/08/07 14:35:43;;;;;;;3.30;1.80;;;;;;;;;;5077727;28;20306;-80
2021/08/07 14:38:09;;;;;;;2.83;1.98;;;;;;;;;;5078807;28;20304;-80
2021/08/07 14:40:35;;;;;;;4.53;2.30;;;;;;;;;;5078007;28;20037;-80